sensor_id;sensor_type;location;lat;lon;timestamp;P1;durP1;ratioP1;P2;durP2;ratioP2
69789;SDS011;57064;52.046;4.800;2022-12-08T00:01:16;2.53;;;0.57;;
69789;SDS011;57064;52.046;4.800;2022-12-08T00:03:44;2.50;;;0.47;;
69789;SDS011;57064;52.046;4.800;2022-12-08T00:06:18;0.45;;;0.35;;
69789;SDS011;57064;52.046;4.800;2022-12-08T00:11:52;1.33;;;0.30;;
69789;SDS011;57064;52.046;4.800;2022-12-08T00:14:18;0.70;;;0.30;;
69789;SDS011;57064;52.046;4.800;2022-12-08T00:16:47;2.88;;;0.50;;
69789;SDS011;57064;52.046;4.800;2022-12-08T00:19:13;0.52;;;0.28;;
69789;SDS011;57064;52.046;4.800;2022-12-08T00:21:39;1.55;;;0.60;;
69789;SDS011;57064;52.046;4.800;2022-12-08T00:24:05;2.15;;;0.52;;
69789;SDS011;57064;52.046;4.800;2022-12-08T00:26:32;3.35;;;0.40;;
69789;SDS011;57064;52.046;4.800;2022-12-08T00:28:58;2.28;;;0.40;;
69789;SDS011;57064;52.046;4.800;2022-12-08T00:31:24;3.20;;;0.57;;
69789;SDS011;57064;52.046;4.800;2022-12-08T00:33:50;0.68;;;0.50;;
69789;SDS011;57064;52.046;4.800;2022-12-08T00:36:16;2.22;;;0.80;;
69789;SDS011;57064;52.046;4.800;2022-12-08T00:38:42;1.63;;;0.43;;
69789;SDS011;57064;52.046;4.800;2022-12-08T00:41:16;2.00;;;0.93;;
69789;SDS011;57064;52.046;4.800;2022-12-08T00:44:04;2.38;;;0.50;;
69789;SDS011;57064;52.046;4.800;2022-12-08T00:46:31;1.38;;;0.75;;
69789;SDS011;57064;52.046;4.800;2022-12-08T00:48:57;3.60;;;1.60;;
69789;SDS011;57064;52.046;4.800;2022-12-08T00:51:23;3.85;;;2.25;;
69789;SDS011;57064;52.046;4.800;2022-12-08T00:53:49;6.47;;;3.50;;
69789;SDS011;57064;52.046;4.800;2022-12-08T00:56:15;6.78;;;3.72;;
69789;SDS011;57064;52.046;4.800;2022-12-08T00:58:41;6.43;;;3.42;;
69789;SDS011;57064;52.046;4.800;2022-12-08T01:01:10;10.02;;;5.03;;
69789;SDS011;57064;52.046;4.800;2022-12-08T01:03:37;10.50;;;6.15;;
69789;SDS011;57064;52.046;4.800;2022-12-08T01:06:04;9.90;;;6.60;;
69789;SDS011;57064;52.046;4.800;2022-12-08T01:08:31;11.95;;;6.65;;
69789;SDS011;57064;52.046;4.800;2022-12-08T01:11:07;11.05;;;6.75;;
69789;SDS011;57064;52.046;4.800;2022-12-08T01:13:35;10.23;;;7.22;;
69789;SDS011;57064;52.046;4.800;2022-12-08T01:16:02;11.55;;;7.35;;
69789;SDS011;57064;52.046;4.800;2022-12-08T01:18:28;10.25;;;7.28;;
69789;SDS011;57064;52.046;4.800;2022-12-08T01:20:54;12.20;;;7.43;;
69789;SDS011;57064;52.046;4.800;2022-12-08T01:23:27;11.68;;;7.88;;
69789;SDS011;57064;52.046;4.800;2022-12-08T01:25:54;11.07;;;7.43;;
69789;SDS011;57064;52.046;4.800;2022-12-08T01:28:20;12.63;;;7.15;;
69789;SDS011;57064;52.046;4.800;2022-12-08T01:30:46;9.93;;;6.53;;
69789;SDS011;57064;52.046;4.800;2022-12-08T01:33:12;10.88;;;6.10;;
69789;SDS011;57064;52.046;4.800;2022-12-08T01:35:38;9.25;;;5.22;;
69789;SDS011;57064;52.046;4.800;2022-12-08T01:38:04;11.50;;;6.50;;
69789;SDS011;57064;52.046;4.800;2022-12-08T01:40:30;8.95;;;5.28;;
69789;SDS011;57064;52.046;4.800;2022-12-08T01:42:56;9.90;;;4.50;;
69789;SDS011;57064;52.046;4.800;2022-12-08T01:45:26;6.97;;;4.53;;
69789;SDS011;57064;52.046;4.800;2022-12-08T01:47:57;9.85;;;4.95;;
69789;SDS011;57064;52.046;4.800;2022-12-08T01:50:26;7.35;;;4.35;;
69789;SDS011;57064;52.046;4.800;2022-12-08T01:52:54;7.20;;;4.15;;
69789;SDS011;57064;52.046;4.800;2022-12-08T01:55:25;6.57;;;3.20;;
69789;SDS011;57064;52.046;4.800;2022-12-08T02:00:58;8.05;;;3.03;;
69789;SDS011;57064;52.046;4.800;2022-12-08T02:03:26;3.30;;;1.80;;
69789;SDS011;57064;52.046;4.800;2022-12-08T02:05:53;3.00;;;1.15;;
69789;SDS011;57064;52.046;4.800;2022-12-08T02:08:19;6.80;;;1.63;;
69789;SDS011;57064;52.046;4.800;2022-12-08T02:10:48;4.30;;;1.50;;
69789;SDS011;57064;52.046;4.800;2022-12-08T02:13:16;23.75;;;1.75;;
69789;SDS011;57064;52.046;4.800;2022-12-08T02:16:07;5.60;;;1.85;;
69789;SDS011;57064;52.046;4.800;2022-12-08T02:21:41;6.65;;;1.95;;
69789;SDS011;57064;52.046;4.800;2022-12-08T02:35:24;1.38;;;0.60;;
69789;SDS011;57064;52.046;4.800;2022-12-08T02:38:15;5.43;;;0.90;;
69789;SDS011;57064;52.046;4.800;2022-12-08T02:40:53;1.67;;;1.25;;
69789;SDS011;57064;52.046;4.800;2022-12-08T02:43:31;4.68;;;1.80;;
69789;SDS011;57064;52.046;4.800;2022-12-08T02:46:00;6.35;;;3.13;;
69789;SDS011;57064;52.046;4.800;2022-12-08T02:48:29;6.55;;;3.28;;
69789;SDS011;57064;52.046;4.800;2022-12-08T02:50:56;5.95;;;4.03;;
69789;SDS011;57064;52.046;4.800;2022-12-08T02:53:23;9.82;;;4.50;;
69789;SDS011;57064;52.046;4.800;2022-12-08T03:02:16;11.82;;;5.95;;
69789;SDS011;57064;52.046;4.800;2022-12-08T03:10:11;4.65;;;1.92;;
69789;SDS011;57064;52.046;4.800;2022-12-08T03:15:45;9.27;;;3.70;;
69789;SDS011;57064;52.046;4.800;2022-12-08T03:18:15;7.28;;;3.83;;
69789;SDS011;57064;52.046;4.800;2022-12-08T03:20:43;7.07;;;3.90;;
69789;SDS011;57064;52.046;4.800;2022-12-08T03:23:12;7.10;;;3.00;;
69789;SDS011;57064;52.046;4.800;2022-12-08T03:25:42;3.97;;;2.28;;
69789;SDS011;57064;52.046;4.800;2022-12-08T03:28:22;3.57;;;1.60;;
69789;SDS011;57064;52.046;4.800;2022-12-08T03:30:48;1.73;;;0.95;;
69789;SDS011;57064;52.046;4.800;2022-12-08T03:33:27;2.25;;;0.88;;
69789;SDS011;57064;52.046;4.800;2022-12-08T03:35:58;6.93;;;1.92;;
69789;SDS011;57064;52.046;4.800;2022-12-08T03:38:25;5.18;;;1.17;;
69789;SDS011;57064;52.046;4.800;2022-12-08T03:41:00;4.68;;;0.65;;
69789;SDS011;57064;52.046;4.800;2022-12-08T03:43:48;3.47;;;1.08;;
69789;SDS011;57064;52.046;4.800;2022-12-08T03:46:19;4.22;;;0.40;;
69789;SDS011;57064;52.046;4.800;2022-12-08T03:48:47;1.98;;;0.60;;
69789;SDS011;57064;52.046;4.800;2022-12-08T03:51:14;1.65;;;0.88;;
69789;SDS011;57064;52.046;4.800;2022-12-08T03:53:40;3.58;;;0.40;;
69789;SDS011;57064;52.046;4.800;2022-12-08T03:56:21;1.95;;;0.38;;
69789;SDS011;57064;52.046;4.800;2022-12-08T03:58:47;3.28;;;0.30;;
69789;SDS011;57064;52.046;4.800;2022-12-08T04:01:13;1.65;;;0.35;;
69789;SDS011;57064;52.046;4.800;2022-12-08T04:03:39;1.58;;;0.73;;
69789;SDS011;57064;52.046;4.800;2022-12-08T04:06:05;2.70;;;0.47;;
69789;SDS011;57064;52.046;4.800;2022-12-08T04:08:32;2.63;;;0.50;;
69789;SDS011;57064;52.046;4.800;2022-12-08T04:10:58;1.45;;;0.30;;
69789;SDS011;57064;52.046;4.800;2022-12-08T04:13:24;5.50;;;0.70;;
69789;SDS011;57064;52.046;4.800;2022-12-08T04:15:50;4.68;;;0.40;;
69789;SDS011;57064;52.046;4.800;2022-12-08T04:18:16;2.67;;;0.43;;
69789;SDS011;57064;52.046;4.800;2022-12-08T04:20:43;3.40;;;0.47;;
69789;SDS011;57064;52.046;4.800;2022-12-08T04:23:09;4.20;;;0.47;;
69789;SDS011;57064;52.046;4.800;2022-12-08T04:25:36;6.65;;;0.63;;
69789;SDS011;57064;52.046;4.800;2022-12-08T04:28:03;4.47;;;0.40;;
69789;SDS011;57064;52.046;4.800;2022-12-08T04:30:29;0.38;;;0.28;;
69789;SDS011;57064;52.046;4.800;2022-12-08T04:32:56;3.25;;;0.40;;
69789;SDS011;57064;52.046;4.800;2022-12-08T04:35:22;2.85;;;0.38;;
69789;SDS011;57064;52.046;4.800;2022-12-08T04:37:50;1.05;;;0.32;;
69789;SDS011;57064;52.046;4.800;2022-12-08T04:40:16;1.08;;;0.30;;
69789;SDS011;57064;52.046;4.800;2022-12-08T04:42:43;1.98;;;0.30;;
69789;SDS011;57064;52.046;4.800;2022-12-08T04:45:09;0.20;;;0.20;;
69789;SDS011;57064;52.046;4.800;2022-12-08T04:47:35;5.13;;;0.40;;
69789;SDS011;57064;52.046;4.800;2022-12-08T04:50:02;5.78;;;0.45;;
69789;SDS011;57064;52.046;4.800;2022-12-08T04:52:29;4.25;;;0.40;;
69789;SDS011;57064;52.046;4.800;2022-12-08T04:54:55;1.58;;;0.30;;
69789;SDS011;57064;52.046;4.800;2022-12-08T04:57:21;3.50;;;0.43;;
69789;SDS011;57064;52.046;4.800;2022-12-08T04:59:47;2.08;;;0.30;;
69789;SDS011;57064;52.046;4.800;2022-12-08T05:02:13;0.40;;;0.20;;
69789;SDS011;57064;52.046;4.800;2022-12-08T05:04:39;1.55;;;0.40;;
69789;SDS011;57064;52.046;4.800;2022-12-08T05:07:05;2.85;;;0.30;;
69789;SDS011;57064;52.046;4.800;2022-12-08T05:09:31;1.58;;;0.28;;
69789;SDS011;57064;52.046;4.800;2022-12-08T05:11:58;3.20;;;0.40;;
69789;SDS011;57064;52.046;4.800;2022-12-08T05:14:24;0.90;;;0.40;;
69789;SDS011;57064;52.046;4.800;2022-12-08T05:16:50;3.10;;;0.70;;
69789;SDS011;57064;52.046;4.800;2022-12-08T05:19:17;0.73;;;0.50;;
69789;SDS011;57064;52.046;4.800;2022-12-08T05:21:43;6.72;;;2.78;;
69789;SDS011;57064;52.046;4.800;2022-12-08T05:24:09;1.63;;;0.32;;
69789;SDS011;57064;52.046;4.800;2022-12-08T05:26:35;2.53;;;0.40;;
69789;SDS011;57064;52.046;4.800;2022-12-08T05:29:01;6.32;;;1.50;;
69789;SDS011;57064;52.046;4.800;2022-12-08T05:31:27;7.45;;;2.17;;
69789;SDS011;57064;52.046;4.800;2022-12-08T05:33:55;0.63;;;0.20;;
69789;SDS011;57064;52.046;4.800;2022-12-08T05:36:21;1.58;;;0.45;;
69789;SDS011;57064;52.046;4.800;2022-12-08T05:38:47;4.10;;;0.35;;
69789;SDS011;57064;52.046;4.800;2022-12-08T05:41:14;1.65;;;0.20;;
69789;SDS011;57064;52.046;4.800;2022-12-08T05:43:42;1.48;;;0.30;;
69789;SDS011;57064;52.046;4.800;2022-12-08T05:46:09;2.67;;;0.50;;
69789;SDS011;57064;52.046;4.800;2022-12-08T05:48:35;0.90;;;0.30;;
69789;SDS011;57064;52.046;4.800;2022-12-08T05:51:01;1.40;;;0.40;;
69789;SDS011;57064;52.046;4.800;2022-12-08T05:53:28;0.93;;;0.32;;
69789;SDS011;57064;52.046;4.800;2022-12-08T05:55:54;1.17;;;0.28;;
69789;SDS011;57064;52.046;4.800;2022-12-08T05:58:20;0.57;;;0.28;;
69789;SDS011;57064;52.046;4.800;2022-12-08T06:00:47;3.45;;;0.38;;
69789;SDS011;57064;52.046;4.800;2022-12-08T06:03:14;1.27;;;0.45;;
69789;SDS011;57064;52.046;4.800;2022-12-08T06:05:42;0.80;;;0.30;;
69789;SDS011;57064;52.046;4.800;2022-12-08T06:08:10;0.32;;;0.20;;
69789;SDS011;57064;52.046;4.800;2022-12-08T06:10:37;0.57;;;0.30;;
69789;SDS011;57064;52.046;4.800;2022-12-08T06:13:04;2.00;;;1.05;;
69789;SDS011;57064;52.046;4.800;2022-12-08T06:15:30;0.85;;;0.30;;
69789;SDS011;57064;52.046;4.800;2022-12-08T06:17:59;0.20;;;0.20;;
69789;SDS011;57064;52.046;4.800;2022-12-08T06:20:25;3.10;;;0.60;;
69789;SDS011;57064;52.046;4.800;2022-12-08T06:22:52;1.00;;;0.30;;
69789;SDS011;57064;52.046;4.800;2022-12-08T06:25:19;0.60;;;0.30;;
69789;SDS011;57064;52.046;4.800;2022-12-08T06:27:47;1.75;;;0.32;;
69789;SDS011;57064;52.046;4.800;2022-12-08T06:30:13;4.38;;;0.80;;
69789;SDS011;57064;52.046;4.800;2022-12-08T06:32:39;2.00;;;0.45;;
69789;SDS011;57064;52.046;4.800;2022-12-08T06:35:05;2.78;;;0.40;;
69789;SDS011;57064;52.046;4.800;2022-12-08T06:37:32;3.13;;;0.57;;
69789;SDS011;57064;52.046;4.800;2022-12-08T06:39:58;0.88;;;0.32;;
69789;SDS011;57064;52.046;4.800;2022-12-08T06:42:24;1.35;;;0.30;;
69789;SDS011;57064;52.046;4.800;2022-12-08T06:45:16;2.05;;;0.30;;
69789;SDS011;57064;52.046;4.800;2022-12-08T06:47:42;0.98;;;0.50;;
69789;SDS011;57064;52.046;4.800;2022-12-08T06:50:09;1.30;;;0.70;;
69789;SDS011;57064;52.046;4.800;2022-12-08T06:52:36;2.33;;;1.00;;
69789;SDS011;57064;52.046;4.800;2022-12-08T06:55:02;2.15;;;1.40;;
69789;SDS011;57064;52.046;4.800;2022-12-08T06:57:28;1.58;;;0.70;;
69789;SDS011;57064;52.046;4.800;2022-12-08T06:59:54;0.88;;;0.55;;
69789;SDS011;57064;52.046;4.800;2022-12-08T07:02:20;2.10;;;1.40;;
69789;SDS011;57064;52.046;4.800;2022-12-08T07:04:46;3.13;;;1.00;;
69789;SDS011;57064;52.046;4.800;2022-12-08T07:07:12;2.10;;;1.02;;
69789;SDS011;57064;52.046;4.800;2022-12-08T07:09:38;0.77;;;0.47;;
69789;SDS011;57064;52.046;4.800;2022-12-08T07:12:04;0.93;;;0.40;;
69789;SDS011;57064;52.046;4.800;2022-12-08T07:14:32;1.23;;;0.70;;
69789;SDS011;57064;52.046;4.800;2022-12-08T07:16:58;4.90;;;0.68;;
69789;SDS011;57064;52.046;4.800;2022-12-08T07:19:24;0.60;;;0.40;;
69789;SDS011;57064;52.046;4.800;2022-12-08T07:21:50;1.05;;;0.60;;
69789;SDS011;57064;52.046;4.800;2022-12-08T07:24:16;3.47;;;0.60;;
69789;SDS011;57064;52.046;4.800;2022-12-08T07:26:42;2.10;;;0.70;;
69789;SDS011;57064;52.046;4.800;2022-12-08T07:29:09;1.55;;;0.80;;
69789;SDS011;57064;52.046;4.800;2022-12-08T07:31:35;1.77;;;0.90;;
69789;SDS011;57064;52.046;4.800;2022-12-08T07:34:01;5.18;;;1.13;;
69789;SDS011;57064;52.046;4.800;2022-12-08T07:36:27;2.15;;;1.10;;
69789;SDS011;57064;52.046;4.800;2022-12-08T07:38:53;1.52;;;0.80;;
69789;SDS011;57064;52.046;4.800;2022-12-08T07:41:21;2.42;;;1.15;;
69789;SDS011;57064;52.046;4.800;2022-12-08T07:43:49;2.08;;;1.10;;
69789;SDS011;57064;52.046;4.800;2022-12-08T07:46:18;4.18;;;1.23;;
69789;SDS011;57064;52.046;4.800;2022-12-08T07:48:45;2.47;;;1.10;;
69789;SDS011;57064;52.046;4.800;2022-12-08T07:51:12;2.47;;;1.10;;
69789;SDS011;57064;52.046;4.800;2022-12-08T07:53:39;1.85;;;1.30;;
69789;SDS011;57064;52.046;4.800;2022-12-08T07:56:07;1.50;;;1.05;;
69789;SDS011;57064;52.046;4.800;2022-12-08T07:58:34;2.08;;;1.02;;
69789;SDS011;57064;52.046;4.800;2022-12-08T08:01:00;2.60;;;0.95;;
69789;SDS011;57064;52.046;4.800;2022-12-08T08:03:27;4.70;;;1.60;;
69789;SDS011;57064;52.046;4.800;2022-12-08T08:05:53;13.48;;;6.45;;
69789;SDS011;57064;52.046;4.800;2022-12-08T08:08:19;22.33;;;6.85;;
69789;SDS011;57064;52.046;4.800;2022-12-08T08:10:45;26.23;;;9.02;;
69789;SDS011;57064;52.046;4.800;2022-12-08T08:13:11;18.05;;;7.65;;
69789;SDS011;57064;52.046;4.800;2022-12-08T08:15:38;13.98;;;6.35;;
69789;SDS011;57064;52.046;4.800;2022-12-08T08:18:04;13.32;;;5.80;;
69789;SDS011;57064;52.046;4.800;2022-12-08T08:20:31;13.82;;;5.90;;
69789;SDS011;57064;52.046;4.800;2022-12-08T08:22:58;16.10;;;6.43;;
69789;SDS011;57064;52.046;4.800;2022-12-08T08:25:24;8.02;;;4.00;;
69789;SDS011;57064;52.046;4.800;2022-12-08T08:27:50;6.47;;;3.75;;
69789;SDS011;57064;52.046;4.800;2022-12-08T08:30:17;5.45;;;3.17;;
69789;SDS011;57064;52.046;4.800;2022-12-08T08:32:44;3.40;;;1.90;;
69789;SDS011;57064;52.046;4.800;2022-12-08T08:35:10;2.63;;;1.75;;
69789;SDS011;57064;52.046;4.800;2022-12-08T08:37:36;2.92;;;1.70;;
69789;SDS011;57064;52.046;4.800;2022-12-08T08:40:02;3.25;;;2.28;;
69789;SDS011;57064;52.046;4.800;2022-12-08T08:42:29;13.40;;;6.05;;
69789;SDS011;57064;52.046;4.800;2022-12-08T08:44:55;9.45;;;4.90;;
69789;SDS011;57064;52.046;4.800;2022-12-08T08:47:22;3.83;;;2.40;;
69789;SDS011;57064;52.046;4.800;2022-12-08T08:49:48;8.60;;;4.13;;
69789;SDS011;57064;52.046;4.800;2022-12-08T08:52:14;6.22;;;3.65;;
69789;SDS011;57064;52.046;4.800;2022-12-08T08:54:40;10.38;;;5.00;;
69789;SDS011;57064;52.046;4.800;2022-12-08T08:57:07;11.73;;;4.90;;
69789;SDS011;57064;52.046;4.800;2022-12-08T08:59:33;10.50;;;4.40;;
69789;SDS011;57064;52.046;4.800;2022-12-08T09:01:59;10.05;;;4.13;;
69789;SDS011;57064;52.046;4.800;2022-12-08T09:04:25;12.68;;;4.88;;
69789;SDS011;57064;52.046;4.800;2022-12-08T09:06:51;22.55;;;8.63;;
69789;SDS011;57064;52.046;4.800;2022-12-08T09:09:17;14.00;;;5.90;;
69789;SDS011;57064;52.046;4.800;2022-12-08T09:11:43;14.23;;;7.15;;
69789;SDS011;57064;52.046;4.800;2022-12-08T09:14:10;11.43;;;6.03;;
69789;SDS011;57064;52.046;4.800;2022-12-08T09:16:39;8.48;;;4.13;;
69789;SDS011;57064;52.046;4.800;2022-12-08T09:19:06;7.00;;;3.00;;
69789;SDS011;57064;52.046;4.800;2022-12-08T09:21:32;5.78;;;3.20;;
69789;SDS011;57064;52.046;4.800;2022-12-08T09:23:58;5.20;;;2.80;;
69789;SDS011;57064;52.046;4.800;2022-12-08T09:26:26;4.03;;;2.53;;
69789;SDS011;57064;52.046;4.800;2022-12-08T09:28:53;5.65;;;2.72;;
69789;SDS011;57064;52.046;4.800;2022-12-08T09:31:21;4.25;;;2.20;;
69789;SDS011;57064;52.046;4.800;2022-12-08T09:33:48;7.22;;;2.28;;
69789;SDS011;57064;52.046;4.800;2022-12-08T09:36:18;6.35;;;2.60;;
69789;SDS011;57064;52.046;4.800;2022-12-08T09:38:47;4.50;;;2.28;;
69789;SDS011;57064;52.046;4.800;2022-12-08T09:46:28;14.30;;;1.95;;
69789;SDS011;57064;52.046;4.800;2022-12-08T09:48:57;6.28;;;1.85;;
69789;SDS011;57064;52.046;4.800;2022-12-08T09:51:30;7.30;;;1.55;;
69789;SDS011;57064;52.046;4.800;2022-12-08T09:54:34;4.55;;;1.73;;
69789;SDS011;57064;52.046;4.800;2022-12-08T09:56:58;4.35;;;1.58;;
69789;SDS011;57064;52.046;4.800;2022-12-08T09:59:31;3.65;;;1.75;;
69789;SDS011;57064;52.046;4.800;2022-12-08T10:01:59;3.08;;;1.35;;
69789;SDS011;57064;52.046;4.800;2022-12-08T10:04:44;2.03;;;1.25;;
69789;SDS011;57064;52.046;4.800;2022-12-08T10:07:25;3.05;;;0.85;;
69789;SDS011;57064;52.046;4.800;2022-12-08T10:10:21;1.52;;;0.98;;
69789;SDS011;57064;52.046;4.800;2022-12-08T10:13:03;3.22;;;1.23;;
69789;SDS011;57064;52.046;4.800;2022-12-08T10:18:41;4.50;;;2.33;;
69789;SDS011;57064;52.046;4.800;2022-12-08T10:21:15;6.57;;;3.00;;
69789;SDS011;57064;52.046;4.800;2022-12-08T10:23:49;5.78;;;3.33;;
69789;SDS011;57064;52.046;4.800;2022-12-08T10:26:20;6.50;;;3.65;;
69789;SDS011;57064;52.046;4.800;2022-12-08T10:28:48;5.85;;;4.50;;
69789;SDS011;57064;52.046;4.800;2022-12-08T10:31:18;7.97;;;4.93;;
69789;SDS011;57064;52.046;4.800;2022-12-08T10:33:47;7.40;;;4.80;;
69789;SDS011;57064;52.046;4.800;2022-12-08T10:36:18;6.75;;;3.80;;
69789;SDS011;57064;52.046;4.800;2022-12-08T10:38:44;10.25;;;4.07;;
69789;SDS011;57064;52.046;4.800;2022-12-08T10:43:37;5.97;;;3.65;;
69789;SDS011;57064;52.046;4.800;2022-12-08T10:46:12;6.10;;;3.83;;
69789;SDS011;57064;52.046;4.800;2022-12-08T10:48:47;4.68;;;2.50;;
69789;SDS011;57064;52.046;4.800;2022-12-08T10:51:58;7.75;;;2.47;;
69789;SDS011;57064;52.046;4.800;2022-12-08T10:54:23;2.97;;;2.00;;
69789;SDS011;57064;52.046;4.800;2022-12-08T10:56:58;4.03;;;1.10;;
69789;SDS011;57064;52.046;4.800;2022-12-08T10:59:25;6.68;;;3.33;;
69789;SDS011;57064;52.046;4.800;2022-12-08T11:01:52;4.22;;;2.00;;
69789;SDS011;57064;52.046;4.800;2022-12-08T11:04:21;5.18;;;3.45;;
69789;SDS011;57064;52.046;4.800;2022-12-08T11:06:49;4.10;;;3.17;;
69789;SDS011;57064;52.046;4.800;2022-12-08T11:12:06;8.55;;;5.07;;
69789;SDS011;57064;52.046;4.800;2022-12-08T11:17:16;7.55;;;5.43;;
69789;SDS011;57064;52.046;4.800;2022-12-08T11:19:53;10.68;;;5.93;;
69789;SDS011;57064;52.046;4.800;2022-12-08T11:22:37;8.63;;;5.43;;
69789;SDS011;57064;52.046;4.800;2022-12-08T11:27:59;8.02;;;5.20;;
69789;SDS011;57064;52.046;4.800;2022-12-08T11:30:36;8.80;;;5.43;;
69789;SDS011;57064;52.046;4.800;2022-12-08T11:35:44;4.15;;;3.20;;
69789;SDS011;57064;52.046;4.800;2022-12-08T11:38:29;6.03;;;3.90;;
69789;SDS011;57064;52.046;4.800;2022-12-08T11:41:03;5.22;;;3.97;;
69789;SDS011;57064;52.046;4.800;2022-12-08T11:46:04;6.40;;;3.45;;
69789;SDS011;57064;52.046;4.800;2022-12-08T11:51:16;6.45;;;3.65;;
69789;SDS011;57064;52.046;4.800;2022-12-08T11:56:52;4.80;;;3.13;;
69789;SDS011;57064;52.046;4.800;2022-12-08T12:02:02;6.80;;;3.10;;
69789;SDS011;57064;52.046;4.800;2022-12-08T12:04:37;6.03;;;2.80;;
69789;SDS011;57064;52.046;4.800;2022-12-08T12:07:13;3.85;;;2.60;;
69789;SDS011;57064;52.046;4.800;2022-12-08T12:10:07;2.90;;;2.33;;
69789;SDS011;57064;52.046;4.800;2022-12-08T12:18:50;3.13;;;1.85;;
69789;SDS011;57064;52.046;4.800;2022-12-08T12:27:01;4.78;;;2.45;;
69789;SDS011;57064;52.046;4.800;2022-12-08T12:29:59;5.20;;;1.85;;
69789;SDS011;57064;52.046;4.800;2022-12-08T12:32:38;1.67;;;1.00;;
69789;SDS011;57064;52.046;4.800;2022-12-08T12:35:13;2.58;;;1.30;;
69789;SDS011;57064;52.046;4.800;2022-12-08T12:38:49;1.55;;;0.40;;
69789;SDS011;57064;52.046;4.800;2022-12-08T12:41:21;2.20;;;0.77;;
69789;SDS011;57064;52.046;4.800;2022-12-08T12:44:11;3.47;;;0.40;;
69789;SDS011;57064;52.046;4.800;2022-12-08T12:52:02;2.97;;;1.10;;
69789;SDS011;57064;52.046;4.800;2022-12-08T12:54:41;3.83;;;1.23;;
69789;SDS011;57064;52.046;4.800;2022-12-08T12:57:35;2.95;;;1.10;;
69789;SDS011;57064;52.046;4.800;2022-12-08T13:15:38;1.67;;;0.77;;
69789;SDS011;57064;52.046;4.800;2022-12-08T13:18:18;1.73;;;0.70;;
69789;SDS011;57064;52.046;4.800;2022-12-08T13:21:10;2.15;;;0.73;;
69789;SDS011;57064;52.046;4.800;2022-12-08T13:45:03;3.38;;;2.00;;
69789;SDS011;57064;52.046;4.800;2022-12-08T13:50:42;4.03;;;2.20;;
69789;SDS011;57064;52.046;4.800;2022-12-08T13:53:16;5.95;;;2.05;;
69789;SDS011;57064;52.046;4.800;2022-12-08T13:55:58;4.00;;;2.25;;
69789;SDS011;57064;52.046;4.800;2022-12-08T13:58:29;5.85;;;2.47;;
69789;SDS011;57064;52.046;4.800;2022-12-08T14:03:45;6.53;;;2.13;;
69789;SDS011;57064;52.046;4.800;2022-12-08T14:06:35;2.50;;;2.00;;
69789;SDS011;57064;52.046;4.800;2022-12-08T14:09:05;2.45;;;1.65;;
69789;SDS011;57064;52.046;4.800;2022-12-08T14:11:38;2.72;;;1.50;;
69789;SDS011;57064;52.046;4.800;2022-12-08T14:14:10;2.67;;;1.70;;
69789;SDS011;57064;52.046;4.800;2022-12-08T14:16:43;1.92;;;1.58;;
69789;SDS011;57064;52.046;4.800;2022-12-08T14:19:18;3.05;;;1.42;;
69789;SDS011;57064;52.046;4.800;2022-12-08T14:21:49;2.72;;;1.50;;
69789;SDS011;57064;52.046;4.800;2022-12-08T14:24:35;4.28;;;1.67;;
69789;SDS011;57064;52.046;4.800;2022-12-08T14:27:02;3.70;;;1.88;;
69789;SDS011;57064;52.046;4.800;2022-12-08T14:29:34;3.58;;;1.83;;
69789;SDS011;57064;52.046;4.800;2022-12-08T14:32:01;5.47;;;1.13;;
69789;SDS011;57064;52.046;4.800;2022-12-08T14:34:29;3.78;;;1.85;;
69789;SDS011;57064;52.046;4.800;2022-12-08T14:37:04;4.57;;;1.58;;
69789;SDS011;57064;52.046;4.800;2022-12-08T14:39:34;7.20;;;2.13;;
69789;SDS011;57064;52.046;4.800;2022-12-08T14:42:00;5.13;;;2.15;;
69789;SDS011;57064;52.046;4.800;2022-12-08T14:44:29;5.78;;;2.70;;
69789;SDS011;57064;52.046;4.800;2022-12-08T14:47:04;3.00;;;2.25;;
69789;SDS011;57064;52.046;4.800;2022-12-08T14:49:32;5.00;;;3.67;;
69789;SDS011;57064;52.046;4.800;2022-12-08T14:52:00;4.38;;;2.75;;
69789;SDS011;57064;52.046;4.800;2022-12-08T14:54:28;5.32;;;3.45;;
69789;SDS011;57064;52.046;4.800;2022-12-08T14:56:55;4.13;;;2.50;;
69789;SDS011;57064;52.046;4.800;2022-12-08T14:59:28;3.58;;;2.20;;
69789;SDS011;57064;52.046;4.800;2022-12-08T15:02:11;3.75;;;1.50;;
69789;SDS011;57064;52.046;4.800;2022-12-08T15:04:38;1.38;;;0.98;;
69789;SDS011;57064;52.046;4.800;2022-12-08T15:07:16;2.97;;;1.00;;
69789;SDS011;57064;52.046;4.800;2022-12-08T15:09:47;2.15;;;1.10;;
69789;SDS011;57064;52.046;4.800;2022-12-08T15:12:22;2.67;;;1.33;;
69789;SDS011;57064;52.046;4.800;2022-12-08T15:23:20;4.05;;;2.40;;
69789;SDS011;57064;52.046;4.800;2022-12-08T15:25:51;9.00;;;3.10;;
69789;SDS011;57064;52.046;4.800;2022-12-08T15:28:19;3.55;;;2.30;;
69789;SDS011;57064;52.046;4.800;2022-12-08T15:30:47;3.65;;;2.33;;
69789;SDS011;57064;52.046;4.800;2022-12-08T15:33:14;3.90;;;2.60;;
69789;SDS011;57064;52.046;4.800;2022-12-08T15:35:40;4.78;;;2.80;;
69789;SDS011;57064;52.046;4.800;2022-12-08T15:38:10;4.38;;;2.53;;
69789;SDS011;57064;52.046;4.800;2022-12-08T15:40:48;7.70;;;3.88;;
69789;SDS011;57064;52.046;4.800;2022-12-08T15:43:16;5.07;;;2.90;;
69789;SDS011;57064;52.046;4.800;2022-12-08T15:45:42;9.13;;;4.80;;
69789;SDS011;57064;52.046;4.800;2022-12-08T15:48:17;7.15;;;4.28;;
69789;SDS011;57064;52.046;4.800;2022-12-08T15:50:45;6.68;;;4.68;;
69789;SDS011;57064;52.046;4.800;2022-12-08T15:53:11;5.65;;;3.30;;
69789;SDS011;57064;52.046;4.800;2022-12-08T15:55:38;6.93;;;4.03;;
69789;SDS011;57064;52.046;4.800;2022-12-08T15:58:06;5.32;;;3.90;;
69789;SDS011;57064;52.046;4.800;2022-12-08T16:00:33;4.88;;;3.60;;
69789;SDS011;57064;52.046;4.800;2022-12-08T16:03:01;5.38;;;3.65;;
69789;SDS011;57064;52.046;4.800;2022-12-08T16:05:29;6.63;;;4.05;;
69789;SDS011;57064;52.046;4.800;2022-12-08T16:07:55;6.03;;;3.65;;
69789;SDS011;57064;52.046;4.800;2022-12-08T16:10:22;6.03;;;3.45;;
69789;SDS011;57064;52.046;4.800;2022-12-08T16:12:50;4.13;;;2.97;;
69789;SDS011;57064;52.046;4.800;2022-12-08T16:15:36;5.97;;;3.45;;
69789;SDS011;57064;52.046;4.800;2022-12-08T16:18:04;7.28;;;4.22;;
69789;SDS011;57064;52.046;4.800;2022-12-08T16:20:31;6.30;;;4.03;;
69789;SDS011;57064;52.046;4.800;2022-12-08T16:22:57;8.32;;;3.90;;
69789;SDS011;57064;52.046;4.800;2022-12-08T16:25:23;7.55;;;3.83;;
69789;SDS011;57064;52.046;4.800;2022-12-08T16:27:53;6.90;;;4.65;;
69789;SDS011;57064;52.046;4.800;2022-12-08T16:30:20;8.75;;;5.22;;
69789;SDS011;57064;52.046;4.800;2022-12-08T16:32:46;9.93;;;5.63;;
69789;SDS011;57064;52.046;4.800;2022-12-08T16:35:12;12.93;;;7.32;;
69789;SDS011;57064;52.046;4.800;2022-12-08T16:37:39;9.02;;;6.22;;
69789;SDS011;57064;52.046;4.800;2022-12-08T16:40:05;9.02;;;6.40;;
69789;SDS011;57064;52.046;4.800;2022-12-08T16:42:32;14.93;;;6.68;;
69789;SDS011;57064;52.046;4.800;2022-12-08T16:47:32;11.68;;;6.25;;
69789;SDS011;57064;52.046;4.800;2022-12-08T16:49:59;9.73;;;6.07;;
69789;SDS011;57064;52.046;4.800;2022-12-08T16:52:28;13.07;;;7.28;;
69789;SDS011;57064;52.046;4.800;2022-12-08T16:54:55;9.02;;;6.10;;
69789;SDS011;57064;52.046;4.800;2022-12-08T16:57:21;10.73;;;6.43;;
69789;SDS011;57064;52.046;4.800;2022-12-08T16:59:47;14.05;;;6.53;;
69789;SDS011;57064;52.046;4.800;2022-12-08T17:02:13;12.38;;;6.75;;
69789;SDS011;57064;52.046;4.800;2022-12-08T17:04:39;16.67;;;6.85;;
69789;SDS011;57064;52.046;4.800;2022-12-08T17:07:05;10.60;;;6.47;;
69789;SDS011;57064;52.046;4.800;2022-12-08T17:09:32;10.85;;;5.80;;
69789;SDS011;57064;52.046;4.800;2022-12-08T17:11:58;10.88;;;5.40;;
69789;SDS011;57064;52.046;4.800;2022-12-08T17:14:24;11.02;;;6.32;;
69789;SDS011;57064;52.046;4.800;2022-12-08T17:16:50;15.00;;;7.05;;
69789;SDS011;57064;52.046;4.800;2022-12-08T17:19:16;11.00;;;6.43;;